Time;durP1;ratioP1;P1;durP2;ratioP2;P2;SDS_P1;SDS_P2;PMS_P1;PMS_P2;Temp;Humidity;BMP_temperature;BMP_pressure;BME280_temperature;BME280_humidity;BME280_pressure;Samples;Min_cycle;Max_cycle;Signal;HPM_P1;HPM_P2
2021/10/09 00:01:42;;;;;;;23.77;16.50;;;8.00;99.90;;;;;;1933872;73;21066;-74
2021/10/09 00:04:09;;;;;;;24.82;15.72;;;7.90;99.90;;;;;;1945613;73;21072;-75
2021/10/09 00:06:35;;;;;;;22.15;16.20;;;8.00;99.90;;;;;;1943673;72;21526;-74
2021/10/09 00:09:01;;;;;;;31.25;16.10;;;7.90;99.90;;;;;;1944095;72;21499;-75
2021/10/09 00:11:37;;;;;;;23.22;16.48;;;7.90;99.90;;;;;;1932245;72;21133;-74
2021/10/09 00:14:01;;;;;;;22.37;15.60;;;7.90;99.90;;;;;;1941662;73;21559;-75
2021/10/09 00:16:27;;;;;;;30.40;17.02;;;7.90;99.90;;;;;;1941143;73;21063;-75
2021/10/09 00:18:53;;;;;;;26.60;16.85;;;7.90;99.90;;;;;;1912842;72;21189;-76
2021/10/09 00:21:20;;;;;;;24.92;16.42;;;7.90;99.90;;;;;;1942010;72;21066;-74
2021/10/09 00:23:46;;;;;;;25.50;16.65;;;7.90;99.90;;;;;;1944695;71;21140;-75
2021/10/09 00:26:12;;;;;;;24.65;15.68;;;7.90;99.90;;;;;;1943169;72;21066;-74
2021/10/09 00:28:38;;;;;;;19.15;15.00;;;7.80;99.90;;;;;;1916462;73;21205;-75
2021/10/09 00:31:04;;;;;;;25.30;16.87;;;7.70;99.90;;;;;;1927463;71;21130;-75
2021/10/09 00:33:30;;;;;;;21.25;16.20;;;7.80;99.90;;;;;;1951420;72;21136;-74
2021/10/09 00:35:56;;;;;;;23.38;16.40;;;7.80;99.90;;;;;;1944372;73;21064;-75
2021/10/09 00:38:22;;;;;;;19.73;15.93;;;7.80;99.90;;;;;;1929198;73;21083;-75
2021/10/09 00:40:49;;;;;;;30.95;15.93;;;7.70;99.90;;;;;;1921496;72;21043;-74
2021/10/09 00:43:15;;;;;;;28.65;16.07;;;7.70;99.90;;;;;;1930941;72;21136;-74
2021/10/09 00:45:41;;;;;;;25.50;15.98;;;7.80;99.90;;;;;;1921839;72;21070;-74
2021/10/09 00:48:07;;;;;;;28.15;16.80;;;7.80;99.90;;;;;;1945121;72;21075;-75
2021/10/09 00:50:33;;;;;;;21.82;16.37;;;7.70;99.90;;;;;;1931149;73;21431;-74
2021/10/09 00:52:59;;;;;;;26.85;16.37;;;7.70;99.90;;;;;;1920525;72;21470;-75
2021/10/09 00:55:25;;;;;;;20.97;16.05;;;7.70;99.90;;;;;;1919835;72;21517;-74
2021/10/09 00:57:51;;;;;;;28.70;16.65;;;7.60;99.90;;;;;;1941980;72;21483;-75
2021/10/09 01:00:18;;;;;;;23.62;16.40;;;7.60;99.90;;;;;;1942718;73;21397;-75
2021/10/09 01:02:44;;;;;;;21.48;16.35;;;7.60;99.90;;;;;;1949652;72;21078;-74
2021/10/09 01:05:10;;;;;;;25.02;16.30;;;7.60;99.90;;;;;;1943762;73;21066;-74
2021/10/09 01:07:36;;;;;;;25.02;16.07;;;7.50;99.90;;;;;;1909482;73;21202;-74
2021/10/09 01:10:02;;;;;;;26.55;17.05;;;7.60;99.90;;;;;;1919205;73;21039;-75
2021/10/09 01:12:28;;;;;;;26.80;16.30;;;7.50;99.90;;;;;;1941093;72;21063;-74
2021/10/09 01:14:54;;;;;;;22.45;15.85;;;7.50;99.90;;;;;;1940331;73;21185;-74
2021/10/09 01:17:20;;;;;;;28.27;16.12;;;7.50;99.90;;;;;;1912196;72;21121;-74
2021/10/09 01:19:47;;;;;;;23.73;15.70;;;7.40;99.90;;;;;;1947187;71;21043;-75
2021/10/09 01:22:13;;;;;;;28.05;15.78;;;7.40;99.90;;;;;;1919919;72;21188;-74
2021/10/09 01:24:39;;;;;;;20.72;15.23;;;7.40;99.90;;;;;;1942060;72;21110;-74
2021/10/09 01:27:05;;;;;;;20.20;15.50;;;7.40;99.90;;;;;;1926213;72;21067;-74
2021/10/09 01:29:31;;;;;;;21.23;16.45;;;7.40;99.90;;;;;;1937451;72;21047;-74
2021/10/09 01:31:57;;;;;;;29.70;16.27;;;7.30;99.90;;;;;;1932680;72;21071;-75
2021/10/09 01:34:23;;;;;;;34.38;16.85;;;7.40;99.90;;;;;;1941446;73;21066;-75
2021/10/09 01:36:49;;;;;;;27.17;17.27;;;7.30;99.90;;;;;;1934725;72;21075;-74
2021/10/09 01:39:16;;;;;;;26.55;16.95;;;7.40;99.90;;;;;;1929965;72;21039;-74
2021/10/09 01:41:42;;;;;;;29.52;17.05;;;7.30;99.90;;;;;;1929067;72;21067;-75
2021/10/09 01:44:08;;;;;;;25.75;16.73;;;7.30;99.90;;;;;;1936826;71;21129;-74
2021/10/09 01:46:34;;;;;;;28.27;16.20;;;7.30;99.90;;;;;;1920984;72;21062;-75
2021/10/09 01:49:00;;;;;;;25.10;16.45;;;7.30;99.90;;;;;;1941338;72;21136;-74
2021/10/09 01:51:27;;;;;;;27.65;16.75;;;7.30;99.90;;;;;;1934436;73;21125;-74
2021/10/09 01:53:53;;;;;;;24.55;15.38;;;7.30;99.90;;;;;;1934228;72;21514;-74
2021/10/09 01:56:20;;;;;;;24.35;16.37;;;7.30;99.90;;;;;;1934505;72;21513;-74
2021/10/09 01:58:46;;;;;;;30.50;17.52;;;7.30;99.90;;;;;;1930895;71;21509;-74
2021/10/09 02:01:12;;;;;;;25.20;16.90;;;7.30;99.90;;;;;;1930566;72;21432;-74
2021/10/09 02:03:38;;;;;;;24.37;16.48;;;7.30;99.90;;;;;;1925308;73;21196;-75
2021/10/09 02:06:04;;;;;;;28.38;16.80;;;7.20;99.90;;;;;;1939018;72;21067;-74
2021/10/09 02:08:30;;;;;;;27.50;17.40;;;7.20;99.90;;;;;;1935763;72;21062;-75
2021/10/09 02:10:59;;;;;;;25.27;16.95;;;7.20;99.90;;;;;;1923347;72;21067;-75
2021/10/09 02:13:41;;;;;;;25.48;15.58;;;7.20;99.90;;;;;;1931369;72;21092;-75
2021/10/09 02:16:14;;;;;;;21.68;16.37;;;7.20;99.90;;;;;;1948012;71;21104;-74
2021/10/09 02:18:36;;;;;;;32.63;17.20;;;7.10;99.90;;;;;;1930631;72;21055;-75
2021/10/09 02:26:25;;;;;;;23.60;16.95;;;7.20;99.90;;;;;;1918706;72;21112;-75
2021/10/09 02:28:51;;;;;;;27.60;17.77;;;7.10;99.90;;;;;;1938916;72;21247;-74
2021/10/09 02:31:17;;;;;;;26.02;17.35;;;7.20;99.90;;;;;;1943039;72;21063;-75
2021/10/09 02:33:43;;;;;;;33.98;17.12;;;7.10;99.90;;;;;;1934187;72;21141;-75
2021/10/09 02:36:09;;;;;;;23.42;16.67;;;7.10;99.90;;;;;;1935312;71;21055;-75
2021/10/09 02:38:35;;;;;;;26.65;17.02;;;7.10;99.90;;;;;;1944042;72;21148;-75
2021/10/09 02:41:01;;;;;;;27.95;16.93;;;7.10;99.90;;;;;;1945618;73;21040;-76
2021/10/09 02:43:27;;;;;;;35.05;16.30;;;7.00;99.90;;;;;;1926716;72;21066;-76
2021/10/09 02:45:54;;;;;;;25.65;16.97;;;6.90;99.90;;;;;;1913275;72;21059;-76
2021/10/09 02:48:20;;;;;;;29.05;15.48;;;7.10;99.90;;;;;;1944359;72;21165;-75
2021/10/09 02:50:46;;;;;;;24.87;16.15;;;7.00;99.90;;;;;;1938511;72;21063;-75
2021/10/09 02:53:12;;;;;;;21.85;16.07;;;7.00;99.90;;;;;;1944658;72;21132;-75
2021/10/09 02:55:38;;;;;;;27.30;16.70;;;6.90;99.90;;;;;;1924072;72;21075;-75
2021/10/09 02:58:04;;;;;;;24.05;15.50;;;7.00;99.90;;;;;;1945024;72;21214;-75
2021/10/09 03:00:30;;;;;;;30.75;15.25;;;7.00;99.90;;;;;;1946619;71;21071;-75
2021/10/09 03:02:56;;;;;;;23.95;15.90;;;6.90;99.90;;;;;;1929124;72;21075;-75
2021/10/09 03:05:23;;;;;;;22.87;15.50;;;6.90;99.90;;;;;;1911150;73;21439;-77
2021/10/09 03:07:49;;;;;;;22.52;15.88;;;6.90;99.90;;;;;;1934223;72;21548;-75
2021/10/09 03:10:15;;;;;;;26.07;15.80;;;6.90;99.90;;;;;;1948991;72;21058;-75
2021/10/09 03:12:41;;;;;;;29.23;16.00;;;6.80;99.90;;;;;;1947018;73;21070;-74
2021/10/09 03:15:07;;;;;;;22.55;14.40;;;6.90;99.90;;;;;;1926543;72;21439;-74
2021/10/09 03:17:33;;;;;;;24.37;14.63;;;6.70;99.90;;;;;;1916651;72;21067;-74
2021/10/09 03:19:59;;;;;;;26.07;16.07;;;6.80;99.90;;;;;;1938581;73;21125;-74
2021/10/09 03:22:25;;;;;;;29.77;17.05;;;6.80;99.90;;;;;;1940156;72;21132;-74
2021/10/09 03:24:52;;;;;;;20.72;15.30;;;6.90;99.90;;;;;;1923711;73;21101;-75
2021/10/09 03:27:18;;;;;;;21.87;16.15;;;6.80;99.90;;;;;;1940311;72;21128;-75
2021/10/09 03:29:44;;;;;;;23.47;15.53;;;6.80;99.90;;;;;;1944782;73;21063;-75
2021/10/09 03:32:10;;;;;;;36.50;16.32;;;6.80;99.90;;;;;;1941048;73;21141;-75
2021/10/09 03:34:36;;;;;;;25.88;17.10;;;6.80;99.90;;;;;;1943870;72;21083;-75
2021/10/09 03:37:02;;;;;;;26.85;16.35;;;6.80;99.90;;;;;;1943334;72;21136;-75
2021/10/09 03:39:29;;;;;;;21.45;15.83;;;6.80;99.90;;;;;;1936708;72;21064;-75
2021/10/09 03:42:01;;;;;;;21.93;16.75;;;6.80;99.90;;;;;;1919142;72;21071;-75
2021/10/09 03:44:23;;;;;;;28.40;16.23;;;6.70;99.90;;;;;;1934758;72;21514;-74
2021/10/09 03:47:03;;;;;;;27.20;16.00;;;6.70;99.90;;;;;;1922986;72;21063;-74
2021/10/09 03:54:32;;;;;;;28.07;16.62;;;6.70;99.90;;;;;;1936748;73;21060;-75
2021/10/09 03:56:58;;;;;;;22.87;15.93;;;6.60;99.90;;;;;;1934015;73;21071;-75
2021/10/09 03:59:24;;;;;;;25.35;16.07;;;6.60;99.90;;;;;;1923860;73;21063;-75
2021/10/09 04:01:50;;;;;;;23.32;14.78;;;6.60;99.90;;;;;;1937794;73;21132;-75
2021/10/09 04:04:16;;;;;;;23.18;15.10;;;6.60;99.90;;;;;;1933257;72;21197;-75
2021/10/09 04:06:42;;;;;;;37.42;17.48;;;6.60;99.90;;;;;;1947133;72;21125;-75
2021/10/09 04:09:08;;;;;;;23.05;15.98;;;6.60;99.90;;;;;;1924039;72;21047;-75
2021/10/09 04:11:34;;;;;;;20.88;15.88;;;6.50;99.90;;;;;;1905881;72;21059;-74
2021/10/09 04:14:01;;;;;;;24.10;16.20;;;6.60;99.90;;;;;;1939059;73;21075;-75
2021/10/09 04:16:27;;;;;;;26.48;16.25;;;6.60;99.90;;;;;;1937018;72;21213;-76
2021/10/09 04:18:53;;;;;;;24.75;15.90;;;6.50;99.90;;;;;;1920957;72;21071;-74
2021/10/09 04:21:19;;;;;;;28.80;16.42;;;6.60;99.90;;;;;;1909321;72;21140;-75
2021/10/09 04:23:45;;;;;;;27.35;17.62;;;6.50;99.90;;;;;;1938681;72;21075;-76
2021/10/09 04:26:11;;;;;;;23.77;15.38;;;6.40;99.90;;;;;;1940111;72;21147;-75
2021/10/09 04:28:37;;;;;;;24.60;15.63;;;6.40;99.90;;;;;;1940233;72;21540;-75
2021/10/09 04:31:03;;;;;;;23.67;15.15;;;6.40;99.90;;;;;;1930905;73;21545;-75
2021/10/09 04:33:30;;;;;;;20.05;14.43;;;6.40;99.90;;;;;;1932561;72;21528;-74
2021/10/09 04:35:56;;;;;;;21.85;15.98;;;6.30;99.90;;;;;;1916385;73;21115;-75
2021/10/09 04:38:22;;;;;;;21.45;15.23;;;6.30;99.90;;;;;;1933760;72;21120;-75
2021/10/09 04:40:48;;;;;;;18.73;14.43;;;6.30;99.90;;;;;;1936776;73;21133;-75
2021/10/09 04:43:14;;;;;;;26.65;15.60;;;6.20;99.90;;;;;;1929048;72;21071;-74
2021/10/09 04:45:40;;;;;;;23.83;14.98;;;6.20;99.90;;;;;;1934308;73;21140;-75
2021/10/09 04:48:07;;;;;;;23.02;14.15;;;6.20;99.90;;;;;;1928774;72;21459;-75
2021/10/09 04:50:33;;;;;;;18.20;14.00;;;6.30;99.90;;;;;;1912743;73;21544;-75
2021/10/09 04:52:59;;;;;;;18.98;13.70;;;6.20;99.90;;;;;;1933805;72;21656;-75
2021/10/09 04:55:25;;;;;;;22.50;15.03;;;6.20;99.90;;;;;;1930347;73;21483;-75
2021/10/09 04:57:51;;;;;;;27.70;14.60;;;6.30;99.90;;;;;;1946551;73;21432;-74
2021/10/09 05:00:29;;;;;;;19.98;15.13;;;6.20;99.90;;;;;;1948274;72;21071;-75
2021/10/09 05:02:55;;;;;;;27.80;15.32;;;6.20;99.90;;;;;;1919379;72;21047;-75
2021/10/09 05:05:21;;;;;;;24.98;14.40;;;6.20;99.90;;;;;;1911508;72;21152;-75
2021/10/09 05:07:48;;;;;;;25.02;14.07;;;6.20;99.90;;;;;;1932326;72;21120;-75
2021/10/09 05:10:14;;;;;;;24.02;15.45;;;6.20;99.90;;;;;;1938253;73;21150;-75
2021/10/09 05:12:40;;;;;;;19.92;13.72;;;6.20;99.90;;;;;;1945933;72;21128;-75
2021/10/09 05:15:06;;;;;;;19.62;12.75;;;6.20;99.90;;;;;;1941334;73;21071;-76
2021/10/09 05:17:32;;;;;;;22.17;14.25;;;6.20;99.90;;;;;;1939133;72;21148;-74
2021/10/09 05:19:58;;;;;;;21.00;14.07;;;6.20;99.90;;;;;;1937988;72;21043;-75
2021/10/09 05:22:24;;;;;;;24.45;14.43;;;6.10;99.90;;;;;;1939698;72;21132;-74
2021/10/09 05:24:53;;;;;;;27.50;14.73;;;6.20;99.90;;;;;;1944251;71;21157;-74
2021/10/09 05:27:18;;;;;;;22.75;14.25;;;6.10;99.90;;;;;;1941365;72;21173;-75
2021/10/09 05:29:44;;;;;;;25.65;15.13;;;6.10;99.90;;;;;;1936520;72;21061;-74
2021/10/09 05:32:11;;;;;;;24.45;15.05;;;6.10;99.90;;;;;;1937209;73;21074;-75
2021/10/09 05:34:37;;;;;;;22.10;15.00;;;6.10;99.90;;;;;;1925413;73;21115;-74
2021/10/09 05:37:03;;;;;;;33.38;17.23;;;6.10;99.90;;;;;;1931538;72;21070;-74
2021/10/09 05:39:29;;;;;;;26.95;15.28;;;6.10;99.90;;;;;;1917885;72;21040;-74
2021/10/09 05:41:55;;;;;;;24.70;15.40;;;6.20;99.90;;;;;;1926016;72;21503;-74
2021/10/09 05:44:21;;;;;;;21.37;15.48;;;6.20;99.90;;;;;;1942555;73;21487;-74
2021/10/09 05:46:47;;;;;;;23.67;16.35;;;6.20;99.90;;;;;;1926477;73;21275;-74
2021/10/09 05:49:14;;;;;;;20.25;14.90;;;6.20;99.90;;;;;;1949701;71;21058;-75
2021/10/09 05:51:55;;;;;;;21.00;15.23;;;6.10;99.90;;;;;;1933188;72;21062;-75
2021/10/09 05:54:14;;;;;;;20.15;14.68;;;6.10;99.90;;;;;;1934874;72;21575;-76
2021/10/09 05:56:49;;;;;;;21.93;14.78;;;6.10;99.90;;;;;;1928762;72;21238;-74
2021/10/09 07:01:04;;;;;;;27.00;16.40;;;7.20;99.90;;;;;;1923051;72;21046;-79
2021/10/09 07:03:30;;;;;;;23.70;15.93;;;7.30;99.90;;;;;;1945605;72;21120;-77
2021/10/09 07:05:56;;;;;;;30.52;15.30;;;7.40;99.90;;;;;;1928922;72;21044;-78
2021/10/09 07:08:22;;;;;;;23.62;15.25;;;7.50;99.90;;;;;;1946558;72;21067;-81
2021/10/09 07:10:50;;;;;;;21.75;16.20;;;7.50;99.90;;;;;;1932556;72;21068;-81
2021/10/09 07:13:16;;;;;;;21.35;15.95;;;7.60;99.90;;;;;;1929022;73;21074;-81
2021/10/09 07:15:42;;;;;;;23.55;16.02;;;7.80;99.90;;;;;;1928987;72;21059;-82
2021/10/09 07:18:13;;;;;;;24.65;16.80;;;7.80;99.90;;;;;;1927135;72;21133;-81
2021/10/09 07:20:36;;;;;;;21.10;16.12;;;7.90;99.90;;;;;;1944514;71;21436;-80
2021/10/09 07:23:03;;;;;;;25.02;16.42;;;8.00;99.90;;;;;;1943341;72;21600;-77
2021/10/09 07:25:29;;;;;;;26.82;17.20;;;8.10;99.90;;;;;;1945725;73;21182;-78
2021/10/09 07:27:55;;;;;;;23.22;15.60;;;8.20;99.90;;;;;;1939642;71;21073;-80
2021/10/09 07:30:21;;;;;;;23.70;15.65;;;8.30;99.90;;;;;;1942197;72;21055;-76
2021/10/09 07:32:48;;;;;;;23.35;15.68;;;8.50;99.90;;;;;;1924396;72;21079;-78
2021/10/09 07:35:15;;;;;;;23.70;15.68;;;8.60;99.90;;;;;;1939632;72;21117;-79
2021/10/09 07:37:41;;;;;;;22.50;14.95;;;8.70;99.90;;;;;;1915686;72;21074;-80
2021/10/09 07:40:07;;;;;;;25.72;15.70;;;8.80;99.90;;;;;;1920111;72;21055;-78
2021/10/09 07:42:34;;;;;;;24.32;14.80;;;9.00;99.90;;;;;;1940528;72;21117;-78
2021/10/09 07:45:00;;;;;;;19.95;14.60;;;9.00;99.90;;;;;;1933796;72;21463;-77
2021/10/09 07:47:26;;;;;;;25.05;15.25;;;9.10;99.90;;;;;;1916124;72;21548;-79
2021/10/09 07:49:52;;;;;;;19.48;14.58;;;9.30;99.90;;;;;;1942062;73;21490;-79
2021/10/09 07:52:18;;;;;;;18.50;13.43;;;9.40;99.90;;;;;;1941094;73;21040;-77
2021/10/09 07:54:44;;;;;;;18.12;14.33;;;9.50;99.90;;;;;;1939157;71;21128;-78
2021/10/09 07:57:10;;;;;;;23.60;14.00;;;9.80;99.90;;;;;;1934655;73;21184;-78
2021/10/09 07:59:36;;;;;;;25.00;14.47;;;10.00;99.90;;;;;;1924497;72;21063;-79
2021/10/09 08:02:04;;;;;;;22.65;13.35;;;10.20;99.90;;;;;;1919583;73;21043;-79
2021/10/09 08:04:31;;;;;;;18.00;12.40;;;10.30;99.90;;;;;;1920609;73;21527;-79
2021/10/09 08:06:57;;;;;;;18.35;12.45;;;10.50;99.90;;;;;;1934101;72;21446;-78
2021/10/09 08:09:26;;;;;;;17.92;12.82;;;10.80;99.90;;;;;;1929690;72;21420;-79
2021/10/09 08:11:51;;;;;;;19.23;12.82;;;11.00;99.90;;;;;;1928565;72;21129;-79
2021/10/09 08:14:17;;;;;;;19.57;12.93;;;11.30;99.90;;;;;;1925374;73;21098;-79
2021/10/09 08:16:43;;;;;;;19.42;11.85;;;11.60;99.90;;;;;;1939534;72;21036;-79
2021/10/09 08:19:09;;;;;;;15.78;11.43;;;11.80;99.90;;;;;;1928725;72;21129;-79
2021/10/09 08:21:40;;;;;;;22.98;12.35;;;12.00;99.90;;;;;;1929486;72;21463;-78
2021/10/09 08:24:11;;;;;;;24.35;12.33;;;12.20;99.90;;;;;;1950477;72;21074;-79
2021/10/09 08:39:42;;;;;;;20.02;10.35;;;13.60;99.90;;;;;;1942906;71;21191;-79
2021/10/09 08:42:09;;;;;;;20.23;10.78;;;13.50;99.90;;;;;;1928358;72;21079;-80
2021/10/09 08:44:35;;;;;;;17.12;10.63;;;13.70;99.90;;;;;;1941981;72;21141;-79
2021/10/09 08:47:02;;;;;;;15.03;10.53;;;13.60;99.90;;;;;;1946572;72;21055;-78
2021/10/09 08:49:32;;;;;;;15.83;10.25;;;13.90;99.90;;;;;;1943241;71;21129;-80
2021/10/09 08:51:57;;;;;;;15.93;10.10;;;13.80;99.90;;;;;;1940323;72;21074;-79
2021/10/09 08:54:23;;;;;;;25.00;10.90;;;14.10;99.90;;;;;;1934359;72;21189;-79
2021/10/09 08:56:49;;;;;;;16.75;10.60;;;14.40;99.90;;;;;;1945666;72;21062;-80
2021/10/09 08:59:26;;;;;;;12.70;9.58;;;14.30;99.90;;;;;;1940876;71;21230;-79
2021/10/09 09:01:57;;;;;;;17.45;10.20;;;14.30;99.90;;;;;;1937847;73;21161;-81
2021/10/09 09:07:13;;;;;;;19.48;9.80;;;14.60;99.90;;;;;;1927523;73;21059;-81
2021/10/09 09:25:51;;;;;;;11.63;8.63;;;15.90;99.90;;;;;;1931142;72;21052;-81
2021/10/09 09:33:19;;;;;;;;;;;16.20;99.90;;;;;;1938099;71;21151;-81
2021/10/09 09:35:54;;;;;;;17.23;8.60;;;16.20;99.90;;;;;;1950207;72;20301;-81
2021/10/09 09:41:03;;;;;;;15.38;8.55;;;16.30;99.90;;;;;;1931952;71;21165;-80
2021/10/09 09:43:29;;;;;;;11.08;7.37;;;16.30;99.90;;;;;;1946032;72;21187;-79
2021/10/09 09:45:56;;;;;;;13.48;7.53;;;16.60;99.90;;;;;;1923207;73;21444;-80
2021/10/09 09:48:22;;;;;;;11.25;6.67;;;16.80;99.90;;;;;;1937191;72;21053;-81
2021/10/09 09:50:48;;;;;;;13.15;7.67;;;16.70;99.90;;;;;;1932006;73;21137;-79
2021/10/09 09:53:14;;;;;;;11.25;7.83;;;16.40;99.90;;;;;;1939942;72;21063;-80
2021/10/09 09:55:40;;;;;;;12.63;7.00;;;16.80;99.90;;;;;;1921495;73;21197;-81
2021/10/09 09:58:06;;;;;;;20.82;7.80;;;16.60;99.90;;;;;;1948355;71;21136;-80
2021/10/09 10:00:32;;;;;;;12.13;7.12;;;16.80;99.90;;;;;;1949655;71;21055;-80
2021/10/09 10:02:59;;;;;;;19.40;8.53;;;17.10;99.90;;;;;;1933250;72;21055;-81
2021/10/09 10:05:28;;;;;;;12.90;8.55;;;17.60;99.90;;;;;;1940803;73;21269;-80
2021/10/09 10:07:52;;;;;;;12.55;7.83;;;17.10;99.90;;;;;;1938620;72;21121;-80
2021/10/09 10:10:19;;;;;;;13.32;8.15;;;16.90;99.90;;;;;;1928890;72;21048;-80
2021/10/09 10:12:45;;;;;;;12.68;8.40;;;16.90;99.90;;;;;;1917309;72;21058;-80
2021/10/09 10:15:11;;;;;;;10.00;8.10;;;16.80;99.90;;;;;;1914652;74;21121;-80
2021/10/09 10:17:37;;;;;;;11.95;8.43;;;17.20;99.90;;;;;;1931122;72;21094;-79
2021/10/09 10:20:03;;;;;;;12.28;8.60;;;17.30;99.90;;;;;;1939842;72;21066;-80
2021/10/09 10:22:29;;;;;;;20.57;8.60;;;17.50;99.90;;;;;;1922789;71;21063;-79
2021/10/09 10:24:55;;;;;;;18.77;8.00;;;17.50;99.90;;;;;;1935685;73;21044;-80
2021/10/09 10:27:21;;;;;;;13.08;7.55;;;17.80;99.90;;;;;;1925972;72;21121;-80
2021/10/09 10:29:48;;;;;;;10.38;6.92;;;17.90;99.90;;;;;;1914519;72;21066;-80
2021/10/09 10:32:14;;;;;;;15.32;8.60;;;17.60;99.90;;;;;;1941388;73;21044;-80
2021/10/09 10:34:43;;;;;;;18.82;7.50;;;18.00;99.90;;;;;;1926014;73;21074;-80
2021/10/09 10:37:08;;;;;;;12.50;7.90;;;17.70;99.90;;;;;;1939758;73;21067;-79
2021/10/09 10:39:35;;;;;;;17.10;7.80;;;17.80;99.90;;;;;;1931660;72;21059;-80
2021/10/09 10:42:03;;;;;;;12.10;7.87;;;17.60;99.90;;;;;;1932632;72;21043;-80
2021/10/09 10:44:28;;;;;;;13.15;7.00;;;18.20;99.90;;;;;;1935132;72;21075;-80
2021/10/09 10:47:00;;;;;;;11.38;7.00;;;18.00;99.90;;;;;;1947807;72;21070;-81
2021/10/09 10:49:30;;;;;;;12.10;7.15;;;18.90;99.90;;;;;;1919432;73;21569;-81
2021/10/09 10:52:13;;;;;;;12.50;7.00;;;19.40;99.90;;;;;;1926131;72;21137;-81
2021/10/09 10:56:55;;;;;;;13.38;7.50;;;19.20;99.90;;;;;;1931945;72;21082;-81
2021/10/09 10:59:21;;;;;;;13.15;7.22;;;18.90;99.90;;;;;;1928443;71;21055;-81
2021/10/09 11:01:47;;;;;;;17.98;7.55;;;19.00;99.90;;;;;;1925044;72;21211;-81
2021/10/09 11:04:13;;;;;;;11.60;7.65;;;19.20;99.90;;;;;;1942453;72;21048;-81
2021/10/09 11:06:39;;;;;;;12.33;6.97;;;19.30;99.90;;;;;;1930274;72;21074;-81
2021/10/09 11:09:05;;;;;;;10.38;7.35;;;19.60;99.90;;;;;;1934587;71;21075;-81
2021/10/09 11:11:31;;;;;;;20.10;7.42;;;19.30;99.90;;;;;;1920212;72;21031;-81
2021/10/09 11:13:58;;;;;;;11.38;7.45;;;19.70;99.90;;;;;;1930526;72;21874;-81
2021/10/09 11:16:24;;;;;;;13.13;7.62;;;19.90;99.90;;;;;;1925508;72;21574;-81
2021/10/09 11:18:50;;;;;;;16.30;7.05;;;19.60;99.90;;;;;;1929781;72;21451;-81
2021/10/09 11:21:17;;;;;;;11.50;7.12;;;19.50;99.90;;;;;;1939643;72;21055;-81
2021/10/09 11:23:43;;;;;;;12.23;6.47;;;20.00;99.90;;;;;;1925576;73;21131;-81
2021/10/09 11:26:09;;;;;;;9.58;6.45;;;20.00;99.90;;;;;;1945085;71;21172;-81
2021/10/09 11:28:40;;;;;;;15.90;7.35;;;20.60;99.90;;;;;;1938957;72;21048;-80
2021/10/09 11:31:05;;;;;;;10.88;6.97;;;20.70;99.90;;;;;;1944917;72;21096;-81
2021/10/09 11:33:33;;;;;;;9.80;6.90;;;20.60;99.90;;;;;;1936580;73;21074;-79
2021/10/09 11:35:59;;;;;;;15.08;7.00;;;20.20;99.90;;;;;;1950123;72;21099;-80
2021/10/09 11:38:26;;;;;;;10.65;7.10;;;19.60;99.90;;;;;;1914201;72;21466;-80
2021/10/09 11:41:05;;;;;;;11.28;6.72;;;19.60;99.90;;;;;;1933927;72;21078;-79
2021/10/09 11:43:37;;;;;;;14.13;7.25;;;19.90;99.90;;;;;;1933822;72;21145;-82
2021/10/09 11:54:21;;;;;;;10.88;6.87;;;19.90;99.90;;;;;;1931908;72;21084;-80
2021/10/09 11:56:35;;;;;;;10.90;7.00;;;20.70;99.90;;;;;;1931010;72;21136;-82
2021/10/09 11:59:04;;;;;;;12.00;6.10;;;21.30;99.90;;;;;;1934825;73;21133;-80
2021/10/09 12:01:29;;;;;;;19.42;6.72;;;20.80;99.90;;;;;;1923147;72;21060;-80
2021/10/09 12:03:55;;;;;;;10.95;6.70;;;20.60;99.90;;;;;;1918386;73;21075;-82
2021/10/09 12:06:22;;;;;;;9.20;6.10;;;20.50;99.90;;;;;;1946286;72;21169;-80
2021/10/09 12:08:48;;;;;;;9.83;6.42;;;20.30;99.90;;;;;;1927430;73;21114;-80
2021/10/09 12:11:14;;;;;;;9.00;5.97;;;20.90;99.90;;;;;;1917683;72;21178;-82
2021/10/09 12:13:40;;;;;;;10.23;6.42;;;21.10;99.90;;;;;;1918419;73;21141;-81
2021/10/09 12:16:06;;;;;;;14.33;5.97;;;20.60;99.90;;;;;;1935338;73;21193;-81
2021/10/09 12:18:32;;;;;;;10.60;5.95;;;20.90;99.90;;;;;;1926123;72;21063;-81
2021/10/09 12:20:58;;;;;;;20.70;5.95;;;20.90;99.90;;;;;;1926230;72;21137;-81
2021/10/09 12:23:25;;;;;;;10.00;6.20;;;21.40;99.90;;;;;;1935726;73;21083;-81
2021/10/09 12:25:51;;;;;;;9.58;5.40;;;21.70;99.90;;;;;;1941404;72;21070;-82
2021/10/09 12:28:17;;;;;;;15.23;6.00;;;20.60;99.90;;;;;;1944499;73;21082;-80
2021/10/09 12:30:47;;;;;;;8.30;5.55;;;20.40;99.90;;;;;;1943351;72;21048;-82
2021/10/09 12:33:12;;;;;;;11.28;5.92;;;20.40;99.90;;;;;;1922283;72;21063;-80
2021/10/09 12:35:39;;;;;;;17.45;6.12;;;20.60;99.90;;;;;;1947481;72;21141;-80
2021/10/09 12:38:05;;;;;;;7.85;5.85;;;21.30;99.90;;;;;;1947260;72;21068;-81
2021/10/09 12:40:31;;;;;;;11.85;5.80;;;20.80;99.90;;;;;;1936629;72;21149;-81
2021/10/09 12:42:58;;;;;;;11.18;6.20;;;20.80;99.90;;;;;;1934371;72;21141;-81
2021/10/09 12:45:24;;;;;;;8.95;6.17;;;20.70;99.90;;;;;;1927678;72;21067;-82
2021/10/09 12:47:50;;;;;;;10.32;6.08;;;20.20;99.90;;;;;;1945075;72;21145;-81
2021/10/09 12:50:18;;;;;;;11.57;6.37;;;21.00;99.90;;;;;;1910072;73;21051;-82
2021/10/09 12:52:44;;;;;;;9.10;5.78;;;20.80;99.90;;;;;;1915288;72;21043;-81
2021/10/09 12:55:10;;;;;;;11.15;6.30;;;20.50;99.90;;;;;;1946241;73;21071;-82
2021/10/09 12:57:39;;;;;;;18.98;6.40;;;21.00;99.90;;;;;;1941066;73;21063;-81
2021/10/09 13:00:04;;;;;;;13.50;5.65;;;20.80;99.90;;;;;;1930575;72;21613;-82
2021/10/09 13:02:30;;;;;;;9.88;5.83;;;22.00;99.90;;;;;;1936313;72;21560;-82
2021/10/09 13:04:56;;;;;;;11.93;5.80;;;22.30;99.90;;;;;;1924804;72;21552;-81
2021/10/09 13:07:22;;;;;;;7.47;5.45;;;21.60;99.90;;;;;;1926926;73;21843;-81
2021/10/09 13:09:50;;;;;;;13.22;5.80;;;21.60;99.90;;;;;;1944969;73;21533;-81
2021/10/09 13:12:16;;;;;;;11.83;5.72;;;22.50;99.90;;;;;;1933688;73;21074;-82
2021/10/09 13:14:42;;;;;;;13.00;5.53;;;22.10;99.90;;;;;;1924355;73;21129;-81
2021/10/09 13:17:08;;;;;;;8.30;5.42;;;22.10;99.90;;;;;;1920006;72;21051;-81
2021/10/09 13:19:34;;;;;;;12.28;5.92;;;22.00;99.90;;;;;;1924104;72;21059;-81
2021/10/09 13:22:00;;;;;;;12.93;5.92;;;21.50;99.90;;;;;;1932182;73;21266;-81
2021/10/09 13:24:26;;;;;;;9.28;5.55;;;21.30;99.90;;;;;;1928821;72;21068;-81
2021/10/09 13:26:52;;;;;;;22.73;6.00;;;21.20;99.90;;;;;;1915615;72;21125;-81
2021/10/09 13:29:19;;;;;;;8.28;5.15;;;21.70;99.90;;;;;;1932551;72;21133;-81
2021/10/09 13:31:45;;;;;;;12.55;5.78;;;21.90;99.90;;;;;;1922170;73;21455;-81
2021/10/09 13:34:11;;;;;;;13.53;5.75;;;21.10;99.90;;;;;;1946883;73;21460;-81
2021/10/09 13:36:37;;;;;;;15.08;5.42;;;21.60;99.90;;;;;;1929362;73;21051;-81
2021/10/09 13:39:04;;;;;;;12.45;6.22;;;22.30;99.90;;;;;;1925077;73;21128;-81
2021/10/09 13:41:30;;;;;;;10.38;5.15;;;21.40;99.90;;;;;;1935777;72;21067;-81
2021/10/09 13:43:56;;;;;;;6.22;4.87;;;21.30;99.90;;;;;;1923434;73;21063;-81
2021/10/09 13:46:27;;;;;;;7.47;4.75;;;21.70;99.90;;;;;;1924791;73;21144;-81
2021/10/09 13:48:50;;;;;;;7.45;5.53;;;21.60;99.90;;;;;;1927210;72;21055;-81
2021/10/09 13:51:16;;;;;;;10.63;5.87;;;22.00;99.90;;;;;;1939827;73;21201;-81
2021/10/09 13:53:42;;;;;;;13.18;5.20;;;21.10;99.90;;;;;;1944980;73;21044;-80
2021/10/09 13:56:08;;;;;;;10.55;5.53;;;21.80;99.90;;;;;;1922236;73;21130;-81
2021/10/09 13:58:34;;;;;;;9.30;5.30;;;21.60;99.90;;;;;;1940018;72;21063;-76
2021/10/09 14:01:00;;;;;;;11.95;4.60;;;21.60;99.90;;;;;;1938887;71;21060;-79
2021/10/09 14:03:29;;;;;;;18.35;5.85;;;21.90;99.90;;;;;;1923282;72;21048;-77
2021/10/09 14:05:54;;;;;;;12.03;5.55;;;21.60;99.90;;;;;;1930384;72;21081;-76
2021/10/09 14:08:20;;;;;;;8.05;5.22;;;22.30;99.90;;;;;;1947080;72;21263;-80
2021/10/09 14:10:47;;;;;;;10.75;5.53;;;21.90;99.90;;;;;;1920673;72;21168;-81
2021/10/09 14:13:13;;;;;;;7.95;5.10;;;21.90;99.90;;;;;;1926649;72;21054;-81
2021/10/09 14:15:39;;;;;;;9.05;4.67;;;22.20;99.90;;;;;;1940470;72;21220;-80
2021/10/09 14:18:05;;;;;;;9.58;4.53;;;22.40;99.90;;;;;;1935026;71;21144;-80
2021/10/09 14:20:31;;;;;;;7.15;4.87;;;21.60;99.90;;;;;;1923334;72;21152;-81
2021/10/09 14:22:58;;;;;;;9.50;4.62;;;22.10;99.90;;;;;;1926934;73;21450;-81
2021/10/09 14:25:31;;;;;;;8.63;4.72;;;22.30;99.90;;;;;;1918425;72;21059;-81
2021/10/09 14:27:52;;;;;;;6.50;4.50;;;22.10;99.90;;;;;;1938197;72;21451;-80
2021/10/09 14:30:18;;;;;;;12.30;4.50;;;21.80;99.90;;;;;;1920571;73;21540;-81
2021/10/09 14:32:44;;;;;;;6.15;4.45;;;21.90;99.90;;;;;;1934096;72;21140;-81
2021/10/09 14:35:10;;;;;;;4.75;4.12;;;22.40;99.90;;;;;;1913514;72;21062;-80
2021/10/09 14:37:36;;;;;;;7.45;4.03;;;22.10;99.90;;;;;;1925701;72;21137;-81